createdAt,value
2024-05-09T00:00:40.590Z,1027.21
2024-05-09T00:01:39.281Z,1027.21
2024-05-09T00:02:39.674Z,1027.22
2024-05-09T00:03:40.025Z,1027.24
2024-05-09T00:04:40.325Z,1027.24
2024-05-09T00:05:41.070Z,1027.25
2024-05-09T00:06:41.053Z,1027.29
2024-05-09T00:07:41.420Z,1027.29
2024-05-09T00:08:41.811Z,1027.26
2024-05-09T00:09:42.137Z,1027.25
2024-05-09T00:10:42.523Z,1027.30
2024-05-09T00:11:42.886Z,1027.24
2024-05-09T00:12:43.193Z,1027.21
2024-05-09T00:13:43.573Z,1027.26
2024-05-09T00:14:43.922Z,1027.24
2024-05-09T00:15:44.302Z,1027.26
2024-05-09T00:16:44.666Z,1027.26
2024-05-09T00:17:45.208Z,1027.30
2024-05-09T00:18:45.438Z,1027.28
2024-05-09T00:19:45.752Z,1027.25
2024-05-09T00:20:46.100Z,1027.23
2024-05-09T00:21:46.428Z,1027.26
2024-05-09T00:22:46.812Z,1027.28
2024-05-09T00:23:47.203Z,1027.23
2024-05-09T00:24:47.487Z,1027.25
2024-05-09T00:25:47.941Z,1027.27
2024-05-09T00:26:48.203Z,1027.23
2024-05-09T00:27:48.595Z,1027.25
2024-05-09T00:28:49.022Z,1027.23
2024-05-09T00:29:49.262Z,1027.24
2024-05-09T00:30:49.649Z,1027.20
2024-05-09T00:31:50.088Z,1027.18
2024-05-09T00:32:50.473Z,1027.19
2024-05-09T00:33:51.046Z,1027.15
2024-05-09T00:34:51.082Z,1027.18
2024-05-09T00:35:51.462Z,1027.16
2024-05-09T00:36:51.799Z,1027.15
2024-05-09T00:37:52.165Z,1027.14
2024-05-09T00:38:52.594Z,1027.13
2024-05-09T00:39:52.908Z,1027.11
2024-05-09T00:40:53.303Z,1027.15
2024-05-09T00:41:53.623Z,1027.11
2024-05-09T00:42:53.992Z,1027.13
2024-05-09T00:43:54.382Z,1027.11
2024-05-09T00:44:54.704Z,1027.10
2024-05-09T00:45:55.090Z,1027.13
2024-05-09T00:46:55.481Z,1027.12
2024-05-09T00:47:55.881Z,1027.09
2024-05-09T00:48:56.268Z,1027.10
2024-05-09T00:49:56.534Z,1027.13
2024-05-09T00:50:56.930Z,1027.11
2024-05-09T00:51:57.203Z,1027.08
2024-05-09T00:52:57.578Z,1027.05
2024-05-09T00:53:57.918Z,1027.03
2024-05-09T00:54:58.282Z,1027.07
2024-05-09T00:55:58.719Z,1027.06
2024-05-09T00:56:58.987Z,1027.09
2024-05-09T00:57:59.363Z,1027.08
2024-05-09T00:58:59.738Z,1027.06
2024-05-09T01:00:00.090Z,1027.03
2024-05-09T01:01:00.494Z,1027.06
2024-05-09T01:02:00.887Z,1027.07
2024-05-09T01:03:01.355Z,1027.05
2024-05-09T01:04:01.631Z,1027.05
2024-05-09T01:05:01.974Z,1027.06
2024-05-09T01:06:02.283Z,1027.04
2024-05-09T01:07:02.573Z,1027.04
2024-05-09T01:08:03.323Z,1027.06
2024-05-09T01:09:03.269Z,1027.04
2024-05-09T01:10:05.511Z,1027.02
2024-05-09T01:11:04.200Z,1027.01
2024-05-09T01:12:04.432Z,1027.01
2024-05-09T01:13:04.946Z,1027.00
2024-05-09T01:14:05.122Z,1026.97
2024-05-09T01:15:05.426Z,1026.99
2024-05-09T01:16:05.806Z,1027.01
2024-05-09T01:17:06.195Z,1027.04
2024-05-09T01:18:06.771Z,1027.02
2024-05-09T01:19:06.991Z,1027.04
2024-05-09T01:20:10.663Z,1027.05
2024-05-09T01:21:07.672Z,1027.07
2024-05-09T01:22:07.975Z,1027.07
2024-05-09T01:23:08.450Z,1027.06
2024-05-09T01:24:08.701Z,1027.05
2024-05-09T01:25:09.078Z,1027.08
2024-05-09T01:26:09.458Z,1027.07
2024-05-09T01:27:09.771Z,1027.04
2024-05-09T01:28:10.115Z,1027.08
2024-05-09T01:29:10.488Z,1027.09
2024-05-09T01:30:17.177Z,1027.11
2024-05-09T01:31:11.190Z,1027.10
2024-05-09T01:32:11.603Z,1027.07
2024-05-09T01:33:12.833Z,1027.07
2024-05-09T01:34:12.279Z,1027.09
2024-05-09T01:35:12.616Z,1027.11
2024-05-09T01:36:12.970Z,1027.08
2024-05-09T01:37:13.334Z,1027.04
2024-05-09T01:38:14.229Z,1027.03
2024-05-09T01:39:14.036Z,1027.02
2024-05-09T01:40:18.628Z,1027.00
2024-05-09T01:41:14.817Z,1026.97
2024-05-09T01:42:15.118Z,1026.98
2024-05-09T01:43:15.491Z,1026.92
2024-05-09T01:44:15.925Z,1026.93
2024-05-09T01:45:16.177Z,1026.89
2024-05-09T01:46:16.573Z,1026.92
2024-05-09T01:47:17.068Z,1026.89
2024-05-09T01:48:17.476Z,1026.90
2024-05-09T01:49:17.826Z,1026.93
2024-05-09T01:50:22.519Z,1026.95
2024-05-09T01:51:18.398Z,1026.95
2024-05-09T01:52:18.713Z,1026.94
2024-05-09T01:53:19.140Z,1026.95
2024-05-09T01:54:19.416Z,1026.96
2024-05-09T01:55:19.763Z,1026.97
2024-05-09T01:56:20.230Z,1026.98
2024-05-09T01:57:20.491Z,1026.91
2024-05-09T01:58:20.871Z,1026.91
2024-05-09T01:59:21.358Z,1026.96
2024-05-09T02:00:30.278Z,1026.93
2024-05-09T02:01:21.993Z,1026.97
2024-05-09T02:02:22.362Z,1026.93
2024-05-09T02:03:22.925Z,1026.96
2024-05-09T02:04:23.134Z,1026.92
2024-05-09T02:05:23.471Z,1026.94
2024-05-09T02:06:23.710Z,1026.95
2024-05-09T02:07:24.038Z,1026.93
2024-05-09T02:08:24.439Z,1026.92
2024-05-09T02:09:24.714Z,1026.95
2024-05-09T02:10:31.775Z,1026.96
2024-05-09T02:11:25.505Z,1026.99
2024-05-09T02:12:25.875Z,1027.00
2024-05-09T02:13:26.117Z,1026.98
2024-05-09T02:14:26.635Z,1026.94
2024-05-09T02:15:26.858Z,1026.93
2024-05-09T02:16:27.177Z,1026.92
2024-05-09T02:17:27.704Z,1026.98
2024-05-09T02:18:28.006Z,1026.95
2024-05-09T02:19:28.375Z,1026.93
2024-05-09T02:20:34.213Z,1026.96
2024-05-09T02:21:28.941Z,1026.92
2024-05-09T02:22:29.237Z,1026.95
2024-05-09T02:23:29.638Z,1026.93
2024-05-09T02:24:29.958Z,1026.92
2024-05-09T02:25:30.312Z,1026.97
2024-05-09T02:26:30.745Z,1026.90
2024-05-09T02:27:31.009Z,1026.92
2024-05-09T02:28:31.349Z,1026.89
2024-05-09T02:29:31.759Z,1026.87
2024-05-09T02:30:39.177Z,1026.89
2024-05-09T02:31:32.442Z,1026.86
2024-05-09T02:32:33.815Z,1026.88
2024-05-09T02:33:33.507Z,1026.85
2024-05-09T02:34:33.581Z,1026.90
2024-05-09T02:35:34.045Z,1026.92
2024-05-09T02:36:34.216Z,1026.92
2024-05-09T02:37:34.522Z,1026.88
2024-05-09T02:38:34.883Z,1026.88
2024-05-09T02:39:35.225Z,1026.89
2024-05-09T02:40:38.295Z,1026.92
2024-05-09T02:41:35.982Z,1026.95
2024-05-09T02:42:36.270Z,1026.92
2024-05-09T02:43:36.642Z,1026.93
2024-05-09T02:44:37.057Z,1026.91
2024-05-09T02:45:37.428Z,1026.97
2024-05-09T02:46:37.776Z,1026.95
2024-05-09T02:47:38.285Z,1026.89
2024-05-09T02:48:38.550Z,1026.91
2024-05-09T02:49:38.968Z,1026.95
2024-05-09T02:50:40.155Z,1026.93
2024-05-09T02:51:39.322Z,1026.93
2024-05-09T02:52:39.579Z,1026.93
2024-05-09T02:53:40.069Z,1026.92
2024-05-09T02:54:40.131Z,1026.91
2024-05-09T02:55:40.409Z,1026.94
2024-05-09T02:56:40.756Z,1026.91
2024-05-09T02:57:40.880Z,1026.90
2024-05-09T02:58:41.164Z,1026.91
2024-05-09T02:59:41.449Z,1026.94
2024-05-09T03:00:42.995Z,1026.90
2024-05-09T03:01:42.171Z,1026.92
2024-05-09T03:02:42.495Z,1026.93
2024-05-09T03:03:42.848Z,1026.93
2024-05-09T03:04:42.960Z,1026.92
2024-05-09T03:05:43.565Z,1026.92
2024-05-09T03:06:43.360Z,1026.92
2024-05-09T03:07:43.693Z,1026.91
2024-05-09T03:08:43.992Z,1026.88
2024-05-09T03:09:44.206Z,1026.91
2024-05-09T03:10:44.536Z,1026.90
2024-05-09T03:11:44.899Z,1026.90
2024-05-09T03:12:45.134Z,1026.92
2024-05-09T03:13:45.360Z,1026.89
2024-05-09T03:14:45.597Z,1026.92
2024-05-09T03:15:45.916Z,1026.89
2024-05-09T03:16:46.140Z,1026.88
2024-05-09T03:17:46.556Z,1026.91
2024-05-09T03:18:46.637Z,1026.88
2024-05-09T03:19:46.912Z,1026.87
2024-05-09T03:20:47.201Z,1026.89
2024-05-09T03:21:47.496Z,1026.88
2024-05-09T03:22:47.785Z,1026.82
2024-05-09T03:23:48.013Z,1026.81
2024-05-09T03:24:48.213Z,1026.79
2024-05-09T03:25:48.604Z,1026.80
2024-05-09T03:26:48.682Z,1026.78
2024-05-09T03:27:48.971Z,1026.78
2024-05-09T03:28:49.325Z,1026.81
2024-05-09T03:29:49.434Z,1026.78
2024-05-09T03:30:49.594Z,1026.81
2024-05-09T03:31:49.900Z,1026.80
2024-05-09T03:32:50.208Z,1026.80
2024-05-09T03:33:50.426Z,1026.78
2024-05-09T03:34:50.491Z,1026.83
2024-05-09T03:35:50.579Z,1026.82
2024-05-09T03:36:50.750Z,1026.81
2024-05-09T03:37:51.018Z,1026.81
2024-05-09T03:38:51.221Z,1026.85
2024-05-09T03:39:51.379Z,1026.80
2024-05-09T03:40:51.812Z,1026.84
2024-05-09T03:41:51.848Z,1026.80
2024-05-09T03:42:52.122Z,1026.81
2024-05-09T03:43:52.339Z,1026.82
2024-05-09T03:44:52.479Z,1026.84
2024-05-09T03:45:52.677Z,1026.79
2024-05-09T03:46:52.822Z,1026.83
2024-05-09T03:47:53.263Z,1026.81
2024-05-09T03:48:53.274Z,1026.86
2024-05-09T03:49:53.387Z,1026.81
2024-05-09T03:50:53.608Z,1026.83
2024-05-09T03:51:53.694Z,1026.84
2024-05-09T03:52:53.882Z,1026.81
2024-05-09T03:53:54.045Z,1026.85
2024-05-09T03:54:54.200Z,1026.82
2024-05-09T03:55:54.434Z,1026.82
2024-05-09T03:56:54.567Z,1026.84
2024-05-09T03:57:54.708Z,1026.77
2024-05-09T03:58:54.946Z,1026.78
2024-05-09T03:59:55.058Z,1026.77
2024-05-09T04:00:55.285Z,1026.78
2024-05-09T04:01:55.507Z,1026.84
2024-05-09T04:02:55.707Z,1026.78
2024-05-09T04:03:55.940Z,1026.79
2024-05-09T04:04:56.096Z,1026.80
2024-05-09T04:05:56.262Z,1026.81
2024-05-09T04:06:56.464Z,1026.76
2024-05-09T04:07:56.613Z,1026.79
2024-05-09T04:08:56.750Z,1026.78
2024-05-09T04:09:56.944Z,1026.84
2024-05-09T04:10:57.171Z,1026.79
2024-05-09T04:11:57.438Z,1026.81
2024-05-09T04:12:57.566Z,1026.83
2024-05-09T04:13:57.772Z,1026.80
2024-05-09T04:14:57.910Z,1026.83
2024-05-09T04:15:58.129Z,1026.88
2024-05-09T04:16:58.394Z,1026.88
2024-05-09T04:17:58.815Z,1026.86
2024-05-09T04:18:58.901Z,1026.79
2024-05-09T04:19:58.991Z,1026.81
2024-05-09T04:20:59.222Z,1026.81
2024-05-09T04:21:59.313Z,1026.84
2024-05-09T04:22:59.521Z,1026.84
2024-05-09T04:23:59.692Z,1026.80
2024-05-09T04:24:59.950Z,1026.83
2024-05-09T04:26:00.366Z,1026.81
2024-05-09T04:27:00.442Z,1026.80
2024-05-09T04:28:00.667Z,1026.83
2024-05-09T04:29:00.835Z,1026.80
2024-05-09T04:30:01.040Z,1026.80
2024-05-09T04:31:01.225Z,1026.79
2024-05-09T04:32:01.473Z,1026.77
2024-05-09T04:33:01.767Z,1026.82
2024-05-09T04:34:01.919Z,1026.82
2024-05-09T04:35:01.966Z,1026.83
2024-05-09T04:36:02.121Z,1026.83
2024-05-09T04:37:02.283Z,1026.87
2024-05-09T04:38:02.582Z,1026.83
2024-05-09T04:39:02.685Z,1026.87
2024-05-09T04:40:03.116Z,1026.86
2024-05-09T04:41:03.148Z,1026.93
2024-05-09T04:42:03.229Z,1026.89
2024-05-09T04:43:03.383Z,1026.94
2024-05-09T04:44:03.609Z,1026.93
2024-05-09T04:45:03.772Z,1026.96
2024-05-09T04:46:03.984Z,1026.87
2024-05-09T04:47:04.186Z,1026.85
2024-05-09T04:48:04.599Z,1026.86
2024-05-09T04:49:04.560Z,1026.87
2024-05-09T04:50:05.650Z,1026.85
2024-05-09T04:51:05.055Z,1026.86
2024-05-09T04:52:05.044Z,1026.93
2024-05-09T04:53:05.938Z,1026.91
2024-05-09T04:54:05.635Z,1026.85
2024-05-09T04:55:05.614Z,1026.87
2024-05-09T04:56:05.873Z,1026.87
2024-05-09T04:57:06.068Z,1026.90
2024-05-09T04:58:06.196Z,1026.92
2024-05-09T04:59:06.390Z,1026.89
2024-05-09T05:00:11.554Z,1026.89
2024-05-09T05:01:06.773Z,1026.88
2024-05-09T05:02:07.001Z,1026.87
2024-05-09T05:03:08.344Z,1026.86
2024-05-09T05:04:07.387Z,1026.88
2024-05-09T05:05:07.610Z,1026.90
2024-05-09T05:06:07.717Z,1026.90
2024-05-09T05:07:07.843Z,1026.88
2024-05-09T05:08:08.060Z,1026.85
2024-05-09T05:09:08.182Z,1026.95
2024-05-09T05:10:11.864Z,1026.90
2024-05-09T05:11:08.765Z,1026.92
2024-05-09T05:12:08.888Z,1026.93
2024-05-09T05:13:08.893Z,1026.95
2024-05-09T05:14:09.105Z,1026.89
2024-05-09T05:15:09.275Z,1026.85
2024-05-09T05:16:09.490Z,1026.89
2024-05-09T05:17:09.686Z,1026.88
2024-05-09T05:18:10.008Z,1026.86
2024-05-09T05:19:13.423Z,1026.88
2024-05-09T05:20:15.058Z,1026.88
2024-05-09T05:21:10.398Z,1026.83
2024-05-09T05:22:10.573Z,1026.88
2024-05-09T05:23:10.767Z,1026.84
2024-05-09T05:24:10.953Z,1026.85
2024-05-09T05:25:11.095Z,1026.82
2024-05-09T05:26:11.367Z,1026.79
2024-05-09T05:27:11.453Z,1026.80
2024-05-09T05:28:11.669Z,1026.79
2024-05-09T05:29:11.897Z,1026.81
2024-05-09T05:30:17.861Z,1026.82
2024-05-09T05:31:12.275Z,1026.83
2024-05-09T05:32:12.482Z,1026.85
2024-05-09T05:33:12.867Z,1026.90
2024-05-09T05:34:12.811Z,1026.87
2024-05-09T05:35:12.958Z,1026.90
2024-05-09T05:36:13.138Z,1026.86
2024-05-09T05:37:13.421Z,1026.86
2024-05-09T05:38:13.625Z,1026.91
2024-05-09T05:39:13.701Z,1026.82
2024-05-09T05:40:24.614Z,1026.85
2024-05-09T05:41:14.086Z,1026.87
2024-05-09T05:42:14.221Z,1026.89
2024-05-09T05:43:14.405Z,1026.89
2024-05-09T05:44:14.607Z,1026.81
2024-05-09T05:45:14.748Z,1026.83
2024-05-09T05:46:14.949Z,1026.85
2024-05-09T05:47:15.228Z,1026.86
2024-05-09T05:48:15.588Z,1026.84
2024-05-09T05:49:15.558Z,1026.83
2024-05-09T05:50:24.351Z,1026.86
2024-05-09T05:51:16.050Z,1026.85
2024-05-09T05:52:16.026Z,1026.82
2024-05-09T05:53:16.306Z,1026.83
2024-05-09T05:54:16.407Z,1026.87
2024-05-09T05:55:16.547Z,1026.83
2024-05-09T05:56:16.760Z,1026.82
2024-05-09T05:57:16.924Z,1026.81
2024-05-09T05:58:17.123Z,1026.80
2024-05-09T05:59:17.396Z,1026.85
2024-05-09T06:00:28.509Z,1026.82
2024-05-09T06:01:17.732Z,1026.85
2024-05-09T06:02:18.050Z,1026.85
2024-05-09T06:03:18.148Z,1026.84
2024-05-09T06:04:18.299Z,1026.81
2024-05-09T06:05:18.519Z,1026.79
2024-05-09T06:06:18.588Z,1026.80
2024-05-09T06:07:18.767Z,1026.87
2024-05-09T06:08:19.019Z,1026.84
2024-05-09T06:09:19.178Z,1026.83
2024-05-09T06:10:25.412Z,1026.79
2024-05-09T06:11:19.570Z,1026.83
2024-05-09T06:12:19.763Z,1026.74
2024-05-09T06:13:19.828Z,1026.77
2024-05-09T06:14:20.086Z,1026.82
2024-05-09T06:15:20.210Z,1026.78
2024-05-09T06:16:20.414Z,1026.75
2024-05-09T06:17:20.722Z,1026.73
2024-05-09T06:18:21.085Z,1026.76
2024-05-09T06:19:21.195Z,1026.73
2024-05-09T06:20:27.745Z,1026.73
2024-05-09T06:21:21.413Z,1026.70
2024-05-09T06:22:21.530Z,1026.70
2024-05-09T06:23:21.770Z,1026.67
2024-05-09T06:24:21.988Z,1026.63
2024-05-09T06:25:22.113Z,1026.69
2024-05-09T06:26:22.347Z,1026.69
2024-05-09T06:27:22.463Z,1026.69
2024-05-09T06:28:22.651Z,1026.72
2024-05-09T06:29:22.885Z,1026.69
2024-05-09T06:30:30.343Z,1026.70
2024-05-09T06:31:23.181Z,1026.69
2024-05-09T06:32:23.536Z,1026.70
2024-05-09T06:33:23.653Z,1026.66
2024-05-09T06:34:23.882Z,1026.69
2024-05-09T06:35:23.968Z,1026.68
2024-05-09T06:36:24.124Z,1026.67
2024-05-09T06:37:24.319Z,1026.65
2024-05-09T06:38:24.572Z,1026.65
2024-05-09T06:39:24.687Z,1026.70
2024-05-09T06:40:29.472Z,1026.74
2024-05-09T06:41:25.077Z,1026.74
2024-05-09T06:42:25.214Z,1026.75
2024-05-09T06:43:25.405Z,1026.76
2024-05-09T06:44:25.696Z,1026.78
2024-05-09T06:45:25.783Z,1026.80
2024-05-09T06:46:25.964Z,1026.81
2024-05-09T06:47:26.348Z,1026.83
2024-05-09T06:48:26.470Z,1026.81
2024-05-09T06:49:26.658Z,1026.83
2024-05-09T06:50:31.088Z,1026.84
2024-05-09T06:51:26.879Z,1026.82
2024-05-09T06:52:27.075Z,1026.82
2024-05-09T06:53:27.318Z,1026.80
2024-05-09T06:54:27.459Z,1026.78
2024-05-09T06:55:27.633Z,1026.79
2024-05-09T06:56:27.829Z,1026.79
2024-05-09T06:57:27.980Z,1026.78
2024-05-09T06:58:28.150Z,1026.79
2024-05-09T06:59:28.547Z,1026.81
2024-05-09T07:00:35.741Z,1026.84
2024-05-09T07:01:28.755Z,1026.79
2024-05-09T07:02:28.961Z,1026.82
2024-05-09T07:03:29.202Z,1026.84
2024-05-09T07:04:29.338Z,1026.82
2024-05-09T07:05:29.436Z,1026.85
2024-05-09T07:06:29.537Z,1026.86
2024-05-09T07:07:29.733Z,1026.86
2024-05-09T07:08:29.945Z,1026.83
2024-05-09T07:09:30.130Z,1026.91
2024-05-09T07:10:34.862Z,1026.87
2024-05-09T07:11:30.516Z,1026.91
2024-05-09T07:12:30.718Z,1026.90
2024-05-09T07:13:30.809Z,1026.91
2024-05-09T07:14:31.947Z,1026.94
2024-05-09T07:15:31.230Z,1026.94
2024-05-09T07:16:31.399Z,1026.96
2024-05-09T07:17:31.930Z,1026.96
2024-05-09T07:18:31.938Z,1026.96
2024-05-09T07:19:32.069Z,1026.94
2024-05-09T07:20:34.840Z,1026.94
2024-05-09T07:21:32.314Z,1026.88
2024-05-09T07:22:32.493Z,1026.96
2024-05-09T07:23:32.856Z,1026.90
2024-05-09T07:24:32.917Z,1026.89
2024-05-09T07:25:33.080Z,1026.84
2024-05-09T07:26:33.348Z,1026.92
2024-05-09T07:27:33.435Z,1026.88
2024-05-09T07:28:33.620Z,1026.84
2024-05-09T07:29:36.141Z,1026.87
2024-05-09T07:30:35.024Z,1026.87
2024-05-09T07:31:34.143Z,1026.86
2024-05-09T07:32:34.434Z,1026.89
2024-05-09T07:33:34.584Z,1026.83
2024-05-09T07:34:35.059Z,1026.85
2024-05-09T07:35:35.029Z,1026.83
2024-05-09T07:36:35.054Z,1026.85
2024-05-09T07:37:35.240Z,1026.78
2024-05-09T07:38:35.631Z,1026.85
2024-05-09T07:39:35.667Z,1026.79
2024-05-09T07:40:37.024Z,1026.88
2024-05-09T07:41:36.155Z,1026.89
2024-05-09T07:42:36.146Z,1026.81
2024-05-09T07:43:36.325Z,1026.86
2024-05-09T07:44:36.599Z,1026.84
2024-05-09T07:45:48.400Z,1026.82
2024-05-09T07:47:47.283Z,1026.86
2024-05-09T07:50:53.231Z,1026.84
2024-05-09T07:53:32.536Z,1026.82
2024-05-09T07:53:49.308Z,1026.85
2024-05-09T07:54:00.444Z,1026.85
2024-05-09T07:54:56.662Z,1026.81
2024-05-09T07:55:56.968Z,1026.81
2024-05-09T07:56:56.772Z,1026.81
2024-05-09T07:57:56.820Z,1026.78
2024-05-09T07:58:57.016Z,1026.79
2024-05-09T07:59:58.199Z,1026.80
2024-05-09T08:00:57.500Z,1026.81
2024-05-09T08:01:58.006Z,1026.83
2024-05-09T08:02:57.755Z,1026.82
2024-05-09T08:03:58.339Z,1026.80
2024-05-09T08:04:58.210Z,1026.78
2024-05-09T08:05:58.285Z,1026.75
2024-05-09T08:06:58.515Z,1026.80
2024-05-09T08:07:58.644Z,1026.81
2024-05-09T08:09:00.872Z,1026.81
2024-05-09T08:09:59.068Z,1026.81
2024-05-09T08:10:59.204Z,1026.79
2024-05-09T08:11:59.438Z,1026.76
2024-05-09T08:12:59.645Z,1026.76
2024-05-09T08:13:59.775Z,1026.75
2024-05-09T08:15:00.011Z,1026.76
2024-05-09T08:16:00.535Z,1026.71
2024-05-09T08:17:00.387Z,1026.78
2024-05-09T08:18:00.888Z,1026.76
2024-05-09T08:19:00.800Z,1026.70
2024-05-09T08:20:03.002Z,1026.73
2024-05-09T08:21:01.085Z,1026.70
2024-05-09T08:22:01.350Z,1026.71
2024-05-09T08:23:01.455Z,1026.70
2024-05-09T08:24:01.644Z,1026.73
2024-05-09T08:25:01.864Z,1026.64
2024-05-09T08:26:02.026Z,1026.63
2024-05-09T08:27:02.183Z,1026.66
2024-05-09T08:28:02.410Z,1026.63
2024-05-09T08:29:02.547Z,1026.69
2024-05-09T08:30:03.135Z,1026.61
2024-05-09T08:31:06.629Z,1026.69
2024-05-09T08:32:03.200Z,1026.65
2024-05-09T08:33:03.328Z,1026.64
2024-05-09T08:34:03.629Z,1026.64
2024-05-09T08:35:03.697Z,1026.61
2024-05-09T08:36:03.824Z,1026.60
2024-05-09T08:37:12.866Z,1026.60
2024-05-09T08:38:04.639Z,1026.63
2024-05-09T08:39:04.375Z,1026.60
2024-05-09T08:40:06.537Z,1026.63
2024-05-09T08:41:04.779Z,1026.59
2024-05-09T08:42:04.917Z,1026.58
2024-05-09T08:43:05.168Z,1026.63
2024-05-09T08:44:05.268Z,1026.56
2024-05-09T08:45:05.477Z,1026.61
2024-05-09T08:46:05.663Z,1026.57
2024-05-09T08:47:05.852Z,1026.58
2024-05-09T08:48:06.486Z,1026.56
2024-05-09T08:49:06.466Z,1026.61
2024-05-09T08:50:08.647Z,1026.51
2024-05-09T08:51:06.549Z,1026.53
2024-05-09T08:52:06.794Z,1026.52
2024-05-09T08:53:06.904Z,1026.57
2024-05-09T08:54:07.099Z,1026.53
2024-05-09T08:55:07.432Z,1026.53
2024-05-09T08:56:07.475Z,1026.50
2024-05-09T08:57:07.646Z,1026.56
2024-05-09T08:58:07.963Z,1026.56
2024-05-09T08:59:08.026Z,1026.58
2024-05-09T09:00:12.661Z,1026.59
2024-05-09T09:01:08.487Z,1026.59
2024-05-09T09:02:08.758Z,1026.60
2024-05-09T09:03:08.939Z,1026.57
2024-05-09T09:04:09.082Z,1026.58
2024-05-09T09:05:09.347Z,1026.54
2024-05-09T09:06:09.323Z,1026.55
2024-05-09T09:07:09.545Z,1026.54
2024-05-09T09:08:09.639Z,1026.54
2024-05-09T09:09:09.816Z,1026.49
2024-05-09T09:10:13.029Z,1026.43
2024-05-09T09:11:10.198Z,1026.49
2024-05-09T09:12:10.757Z,1026.42
2024-05-09T09:13:10.682Z,1026.48
2024-05-09T09:14:10.770Z,1026.52
2024-05-09T09:15:10.998Z,1026.49
2024-05-09T09:16:11.256Z,1026.50
2024-05-09T09:17:11.372Z,1026.47
2024-05-09T09:18:12.340Z,1026.46
2024-05-09T09:19:11.853Z,1026.44
2024-05-09T09:20:16.462Z,1026.42
2024-05-09T09:21:12.090Z,1026.42
2024-05-09T09:22:12.382Z,1026.46
2024-05-09T09:23:12.441Z,1026.40
2024-05-09T09:24:12.641Z,1026.41
2024-05-09T09:25:12.916Z,1026.46
2024-05-09T09:26:13.028Z,1026.33
2024-05-09T09:27:13.228Z,1026.36
2024-05-09T09:28:13.647Z,1026.37
2024-05-09T09:29:13.606Z,1026.42
2024-05-09T09:30:27.677Z,1026.39
2024-05-09T09:31:14.009Z,1026.30
2024-05-09T09:32:14.157Z,1026.32
2024-05-09T09:33:14.449Z,1026.34
2024-05-09T09:34:14.728Z,1026.37
2024-05-09T09:35:14.716Z,1026.33
2024-05-09T09:36:14.925Z,1026.29
2024-05-09T09:37:15.150Z,1026.33
2024-05-09T09:38:15.275Z,1026.32
2024-05-09T09:39:15.454Z,1026.32
2024-05-09T09:40:18.316Z,1026.33
2024-05-09T09:41:15.933Z,1026.28
2024-05-09T09:42:16.044Z,1026.32
2024-05-09T09:43:16.294Z,1026.34
2024-05-09T09:44:16.447Z,1026.30
2024-05-09T09:45:16.663Z,1026.34
2024-05-09T09:46:16.982Z,1026.30
2024-05-09T09:47:17.066Z,1026.31
2024-05-09T09:48:17.396Z,1026.29
2024-05-09T09:49:17.536Z,1026.27
2024-05-09T09:50:24.034Z,1026.29
2024-05-09T09:51:17.848Z,1026.26
2024-05-09T09:52:18.090Z,1026.32
2024-05-09T09:53:18.235Z,1026.23
2024-05-09T09:54:18.417Z,1026.27
2024-05-09T09:55:18.742Z,1026.26
2024-05-09T09:56:18.830Z,1026.29
2024-05-09T09:57:18.989Z,1026.30
2024-05-09T09:58:19.249Z,1026.27
2024-05-09T09:59:19.431Z,1026.19
2024-05-09T10:00:24.640Z,1026.27
2024-05-09T10:01:19.994Z,1026.30
2024-05-09T10:02:20.166Z,1026.27
2024-05-09T10:03:20.319Z,1026.33
2024-05-09T10:04:20.563Z,1026.30
2024-05-09T10:05:20.763Z,1026.33
2024-05-09T10:06:20.805Z,1026.29
2024-05-09T10:07:21.053Z,1026.28
2024-05-09T10:08:21.231Z,1026.30
2024-05-09T10:09:21.459Z,1026.25
2024-05-09T10:10:29.869Z,1026.24
2024-05-09T10:11:21.883Z,1026.23
2024-05-09T10:12:22.100Z,1026.16
2024-05-09T10:13:22.347Z,1026.10
2024-05-09T10:14:22.436Z,1026.11
2024-05-09T10:15:22.676Z,1026.11
2024-05-09T10:16:23.114Z,1026.12
2024-05-09T10:17:23.092Z,1025.89
2024-05-09T10:18:23.459Z,1026.04
2024-05-09T10:19:23.556Z,1026.10
2024-05-09T10:20:28.157Z,1025.97
2024-05-09T10:21:23.882Z,1025.91
2024-05-09T10:22:24.121Z,1025.81
2024-05-09T10:23:24.308Z,1025.81
2024-05-09T10:24:24.508Z,1025.79
2024-05-09T10:25:24.919Z,1025.76
2024-05-09T10:26:24.923Z,1025.74
2024-05-09T10:27:25.131Z,1025.56
2024-05-09T10:28:25.359Z,1025.62
2024-05-09T10:29:25.590Z,1025.63
2024-05-09T10:30:33.461Z,1025.54
2024-05-09T10:31:26.017Z,1025.50
2024-05-09T10:32:26.352Z,1025.37
2024-05-09T10:33:26.458Z,1025.31
2024-05-09T10:34:26.782Z,1025.18
2024-05-09T10:35:26.894Z,1025.11
2024-05-09T10:36:27.050Z,1025.06
2024-05-09T10:37:27.203Z,1025.06
2024-05-09T10:38:27.377Z,1025.03
2024-05-09T10:39:27.615Z,1025.00
2024-05-09T10:40:31.376Z,1024.94
2024-05-09T10:41:27.952Z,1024.90
2024-05-09T10:42:28.172Z,1024.91
2024-05-09T10:43:28.377Z,1024.93
2024-05-09T10:44:28.552Z,1024.94
2024-05-09T10:45:28.821Z,1024.83
2024-05-09T10:46:29.005Z,1024.83
2024-05-09T10:47:29.161Z,1024.90
2024-05-09T10:48:29.449Z,1024.91
2024-05-09T10:49:29.564Z,1024.92
2024-05-09T10:50:34.072Z,1024.90
2024-05-09T10:51:29.953Z,1024.90
2024-05-09T10:52:30.098Z,1024.89
2024-05-09T10:53:30.306Z,1024.93
2024-05-09T10:54:30.566Z,1024.99
2024-05-09T10:55:30.792Z,1025.03
2024-05-09T10:56:30.950Z,1024.98
2024-05-09T10:57:31.110Z,1024.95
2024-05-09T10:58:31.314Z,1025.00
2024-05-09T10:59:31.516Z,1025.07
2024-05-09T11:00:35.806Z,1025.03
2024-05-09T11:01:32.052Z,1025.04
2024-05-09T11:02:32.357Z,1024.96
2024-05-09T11:03:32.538Z,1024.99
2024-05-09T11:04:32.554Z,1024.98
2024-05-09T11:05:32.907Z,1024.97
2024-05-09T11:06:32.963Z,1025.06
2024-05-09T11:07:33.170Z,1025.05
2024-05-09T11:08:33.279Z,1025.04
2024-05-09T11:09:33.507Z,1025.00
2024-05-09T11:10:34.582Z,1025.09
2024-05-09T11:11:33.978Z,1025.13
2024-05-09T11:12:34.133Z,1025.40
2024-05-09T11:13:34.346Z,1025.28
2024-05-09T11:14:34.528Z,1025.28
2024-05-09T11:15:34.751Z,1025.36
2024-05-09T11:16:34.885Z,1025.51
2024-05-09T11:17:35.106Z,1025.54
2024-05-09T11:18:38.778Z,1025.53
2024-05-09T11:19:35.534Z,1025.27
2024-05-09T11:20:35.912Z,1025.31
2024-05-09T11:21:35.892Z,1025.30
2024-05-09T11:22:36.083Z,1025.45
2024-05-09T11:23:36.278Z,1025.46
2024-05-09T11:24:36.497Z,1025.40
2024-05-09T11:25:36.727Z,1025.39
2024-05-09T11:26:36.874Z,1025.35
2024-05-09T11:27:37.143Z,1025.38
2024-05-09T11:28:37.272Z,1025.33
2024-05-09T11:29:37.474Z,1025.27
2024-05-09T11:30:37.781Z,1025.26
2024-05-09T11:31:38.005Z,1025.29
2024-05-09T11:32:38.216Z,1025.27
2024-05-09T11:33:38.606Z,1025.27
2024-05-09T11:34:38.492Z,1025.21
2024-05-09T11:35:38.738Z,1025.20
2024-05-09T11:36:38.980Z,1025.22
2024-05-09T11:37:39.143Z,1025.33
2024-05-09T11:38:39.327Z,1025.31
2024-05-09T11:39:39.564Z,1025.23
2024-05-09T11:40:39.885Z,1025.16
2024-05-09T11:41:39.920Z,1025.22
2024-05-09T11:42:40.295Z,1025.15
2024-05-09T11:43:40.322Z,1025.07
2024-05-09T11:44:40.528Z,1025.05
2024-05-09T11:45:40.820Z,1025.05
2024-05-09T11:46:40.936Z,1025.09
2024-05-09T11:47:41.250Z,1025.05
2024-05-09T11:48:41.606Z,1025.02
2024-05-09T11:49:41.565Z,1025.03
2024-05-09T11:50:41.888Z,1025.06
2024-05-09T11:51:42.002Z,1025.03
2024-05-09T11:52:42.147Z,1025.07
2024-05-09T11:53:42.344Z,1024.97
2024-05-09T11:54:42.633Z,1024.99
2024-05-09T11:55:42.730Z,1024.93
2024-05-09T11:56:42.923Z,1024.98
2024-05-09T11:57:43.148Z,1024.93
2024-05-09T11:58:43.312Z,1024.94
2024-05-09T11:59:43.511Z,1024.96
2024-05-09T12:00:43.938Z,1024.97
2024-05-09T12:01:43.976Z,1024.96
2024-05-09T12:02:44.085Z,1024.97
2024-05-09T12:03:44.506Z,1024.97
2024-05-09T12:04:44.795Z,1025.01
2024-05-09T12:05:44.921Z,1025.02
2024-05-09T12:06:44.940Z,1024.97
2024-05-09T12:07:45.091Z,1024.93
2024-05-09T12:08:45.305Z,1024.99
2024-05-09T12:09:45.566Z,1024.96
2024-05-09T12:10:46.050Z,1024.99
2024-05-09T12:11:45.922Z,1024.93